Time;durP1;ratioP1;P1;durP2;ratioP2;P2;SDS_P1;SDS_P2;PMS_P1;PMS_P2;Temp;Humidity;BMP_temperature;BMP_pressure;BME280_temperature;BME280_humidity;BME280_pressure;Samples;Min_cycle;Max_cycle;Signal;HPM_P1;HPM_P2
2023/04/03 00:01:33;;;;;;;16.42;8.20;;;;;;;;;;5005256;28;20034;-57
2023/04/03 00:04:02;;;;;;;18.08;8.65;;;;;;;;;;5008588;28;20033;-57
2023/04/03 00:06:28;;;;;;;15.88;7.93;;;;;;;;;;5008490;28;20034;-57
2023/04/03 00:08:54;;;;;;;16.13;7.80;;;;;;;;;;5006449;28;20041;-57
2023/04/03 00:11:20;;;;;;;19.30;9.07;;;;;;;;;;5006926;28;20080;-57
2023/04/03 00:13:46;;;;;;;14.95;7.90;;;;;;;;;;5005197;28;20436;-57
2023/04/03 00:16:12;;;;;;;15.52;7.90;;;;;;;;;;5006711;28;20041;-57
2023/04/03 00:18:39;;;;;;;15.95;7.78;;;;;;;;;;5009015;28;20077;-57
2023/04/03 00:21:06;;;;;;;17.95;7.30;;;;;;;;;;5007694;28;20048;-57
2023/04/03 00:23:33;;;;;;;16.38;7.75;;;;;;;;;;5006988;28;20048;-57
2023/04/03 00:25:59;;;;;;;15.80;7.55;;;;;;;;;;5008157;28;20046;-57
2023/04/03 00:28:26;;;;;;;15.45;7.47;;;;;;;;;;5005255;28;20056;-57
2023/04/03 00:30:52;;;;;;;17.02;8.13;;;;;;;;;;5004097;28;20524;-57
2023/04/03 00:33:21;;;;;;;17.48;8.88;;;;;;;;;;5007560;28;20042;-57
2023/04/03 00:35:48;;;;;;;17.20;8.37;;;;;;;;;;5004278;28;20025;-57
2023/04/03 00:38:15;;;;;;;15.13;7.78;;;;;;;;;;5007964;28;20037;-57
2023/04/03 00:40:44;;;;;;;14.07;7.53;;;;;;;;;;5007711;28;20491;-57
2023/04/03 00:43:19;;;;;;;16.73;8.02;;;;;;;;;;5005759;28;20045;-57
2023/04/03 00:45:56;;;;;;;12.77;7.95;;;;;;;;;;4990523;28;20037;-56
2023/04/03 00:48:29;;;;;;;15.27;7.95;;;;;;;;;;5006567;28;20053;-56
2023/04/03 00:50:56;;;;;;;13.75;7.82;;;;;;;;;;5008615;28;20045;-56
2023/04/03 00:53:27;;;;;;;14.70;7.47;;;;;;;;;;5006791;28;20062;-56
2023/04/03 00:55:55;;;;;;;12.38;7.15;;;;;;;;;;5009579;28;20057;-56
2023/04/03 00:58:31;;;;;;;17.17;7.55;;;;;;;;;;5008264;28;20053;-56
2023/04/03 01:00:59;;;;;;;13.50;7.28;;;;;;;;;;5007183;28;20519;-56
2023/04/03 01:03:26;;;;;;;13.80;7.20;;;;;;;;;;5010825;28;20041;-56
2023/04/03 01:05:53;;;;;;;16.50;7.43;;;;;;;;;;5009483;28;20536;-56
2023/04/03 01:08:20;;;;;;;14.23;7.07;;;;;;;;;;5008737;28;20042;-58
2023/04/03 01:10:46;;;;;;;13.88;6.93;;;;;;;;;;5009786;28;20040;-57
2023/04/03 01:13:29;;;;;;;14.70;7.45;;;;;;;;;;5009729;28;20041;-57
2023/04/03 01:15:56;;;;;;;15.15;6.88;;;;;;;;;;5011377;28;20038;-56
2023/04/03 01:18:25;;;;;;;17.98;7.40;;;;;;;;;;5037982;28;20400;-57
2023/04/03 01:20:52;;;;;;;15.27;7.22;;;;;;;;;;5007631;28;20054;-57
2023/04/03 01:23:43;;;;;;;12.35;7.07;;;;;;;;;;5009389;28;20037;-57
2023/04/03 01:26:11;;;;;;;16.40;7.68;;;;;;;;;;5008976;28;20038;-56
2023/04/03 01:28:38;;;;;;;13.52;7.38;;;;;;;;;;5007130;28;20034;-57
2023/04/03 01:31:25;;;;;;;13.85;7.32;;;;;;;;;;5009139;28;20046;-57
2023/04/03 01:33:54;;;;;;;14.00;6.57;;;;;;;;;;5006736;28;20065;-57
2023/04/03 01:36:26;;;;;;;14.93;7.43;;;;;;;;;;5009421;28;20042;-57
2023/04/03 01:38:54;;;;;;;11.45;6.75;;;;;;;;;;5008786;28;20065;-57
2023/04/03 01:41:20;;;;;;;14.32;6.55;;;;;;;;;;5010332;28;20136;-57
2023/04/03 01:43:48;;;;;;;14.20;7.45;;;;;;;;;;5008533;28;20530;-57
2023/04/03 01:46:16;;;;;;;13.35;7.28;;;;;;;;;;5006048;28;20030;-56
2023/04/03 01:48:43;;;;;;;12.95;7.07;;;;;;;;;;5007282;28;20033;-57
2023/04/03 01:51:09;;;;;;;13.82;7.10;;;;;;;;;;5010094;28;20042;-57
2023/04/03 01:53:35;;;;;;;15.40;7.38;;;;;;;;;;5007370;28;20046;-57
2023/04/03 01:56:01;;;;;;;10.40;6.88;;;;;;;;;;5007024;28;20080;-57
2023/04/03 01:58:29;;;;;;;11.98;6.53;;;;;;;;;;5006122;28;20060;-57
2023/04/03 02:00:56;;;;;;;11.32;6.78;;;;;;;;;;5008850;28;20061;-56
2023/04/03 02:03:22;;;;;;;11.50;6.70;;;;;;;;;;5008955;28;20037;-56
2023/04/03 02:05:49;;;;;;;11.43;6.97;;;;;;;;;;5009253;28;20045;-56
2023/04/03 02:08:17;;;;;;;13.95;6.55;;;;;;;;;;5008355;28;20030;-56
2023/04/03 02:10:48;;;;;;;11.77;6.80;;;;;;;;;;5008035;28;20034;-56
2023/04/03 02:13:15;;;;;;;14.10;6.80;;;;;;;;;;5007533;28;20068;-57
2023/04/03 02:15:41;;;;;;;12.30;6.68;;;;;;;;;;5008550;28;20049;-57
2023/04/03 02:18:08;;;;;;;10.57;6.50;;;;;;;;;;5010097;28;20045;-56
2023/04/03 02:20:34;;;;;;;9.02;5.82;;;;;;;;;;5008569;28;20038;-56
2023/04/03 02:23:01;;;;;;;10.73;6.18;;;;;;;;;;5009284;28;20037;-57
2023/04/03 02:25:27;;;;;;;10.75;6.45;;;;;;;;;;5008817;28;20038;-57
2023/04/03 02:27:53;;;;;;;13.20;6.53;;;;;;;;;;5009986;28;20049;-58
2023/04/03 02:30:19;;;;;;;10.45;6.35;;;;;;;;;;5009337;28;20045;-57
2023/04/03 02:32:45;;;;;;;14.13;6.30;;;;;;;;;;5010163;28;20037;-57
2023/04/03 02:35:12;;;;;;;11.98;6.13;;;;;;;;;;5008351;28;20026;-57
2023/04/03 02:37:40;;;;;;;13.27;6.85;;;;;;;;;;5008580;28;20041;-57
2023/04/03 02:40:07;;;;;;;13.07;6.65;;;;;;;;;;4990157;28;20034;-57
2023/04/03 02:42:34;;;;;;;11.80;6.70;;;;;;;;;;5007810;28;20038;-56
2023/04/03 02:45:03;;;;;;;11.98;6.47;;;;;;;;;;5003184;28;20048;-57
2023/04/03 02:47:29;;;;;;;13.10;6.55;;;;;;;;;;5007937;28;20041;-57
2023/04/03 02:49:55;;;;;;;13.48;6.85;;;;;;;;;;5006908;28;20042;-57
2023/04/03 02:52:22;;;;;;;12.60;6.88;;;;;;;;;;5007171;28;20038;-57
2023/04/03 02:54:49;;;;;;;12.07;6.63;;;;;;;;;;5004764;28;20400;-55
2023/04/03 02:57:15;;;;;;;9.55;6.47;;;;;;;;;;5006039;28;20064;-55
2023/04/03 02:59:41;;;;;;;11.32;6.57;;;;;;;;;;5004466;28;20439;-57
2023/04/03 03:02:10;;;;;;;10.38;6.63;;;;;;;;;;5007640;28;20034;-57
2023/04/03 03:04:36;;;;;;;12.05;5.93;;;;;;;;;;5007072;28;20037;-57
2023/04/03 03:07:03;;;;;;;11.02;6.50;;;;;;;;;;5008275;28;20067;-57
2023/04/03 03:09:29;;;;;;;13.40;6.85;;;;;;;;;;5003741;28;20033;-57
2023/04/03 03:11:56;;;;;;;9.48;5.97;;;;;;;;;;5006416;28;20041;-58
2023/04/03 03:14:23;;;;;;;12.38;6.28;;;;;;;;;;5004242;28;20038;-56
2023/04/03 03:16:49;;;;;;;11.95;6.45;;;;;;;;;;5009767;28;20057;-57
2023/04/03 03:19:15;;;;;;;10.70;6.30;;;;;;;;;;5004448;28;20034;-57
2023/04/03 03:21:41;;;;;;;11.38;6.45;;;;;;;;;;5007659;28;20546;-57
2023/04/03 03:24:08;;;;;;;9.73;5.97;;;;;;;;;;4984967;28;20044;-57
2023/04/03 03:26:35;;;;;;;9.57;5.63;;;;;;;;;;5006331;28;20042;-57
2023/04/03 03:29:02;;;;;;;12.32;6.38;;;;;;;;;;5007162;28;20072;-57
2023/04/03 03:31:29;;;;;;;10.07;5.90;;;;;;;;;;5007415;28;20049;-57
2023/04/03 03:33:55;;;;;;;9.48;5.63;;;;;;;;;;5009052;28;20042;-57
2023/04/03 03:36:22;;;;;;;10.15;5.78;;;;;;;;;;5007175;28;20053;-56
2023/04/03 03:38:48;;;;;;;9.10;5.60;;;;;;;;;;5007843;28;20029;-57
2023/04/03 03:41:14;;;;;;;11.95;6.03;;;;;;;;;;5007138;28;20033;-57
2023/04/03 03:43:43;;;;;;;10.60;5.50;;;;;;;;;;5006388;28;20026;-55
2023/04/03 03:46:10;;;;;;;12.52;6.00;;;;;;;;;;5005744;28;20038;-55
2023/04/03 03:48:36;;;;;;;10.40;6.25;;;;;;;;;;5005057;28;20038;-57
2023/04/03 03:51:02;;;;;;;12.48;5.93;;;;;;;;;;5006876;28;20029;-57
2023/04/03 03:53:33;;;;;;;12.27;6.22;;;;;;;;;;5006870;28;20048;-57
2023/04/03 03:56:04;;;;;;;9.27;5.85;;;;;;;;;;5003060;28;20042;-57
2023/04/03 03:58:32;;;;;;;11.32;6.50;;;;;;;;;;4988811;28;20667;-56
2023/04/03 04:01:05;;;;;;;17.25;7.88;;;;;;;;;;5006581;28;20069;-57
2023/04/03 04:03:33;;;;;;;12.57;6.75;;;;;;;;;;5003926;28;20523;-56
2023/04/03 04:05:59;;;;;;;13.77;6.72;;;;;;;;;;5007323;28;20029;-57
2023/04/03 04:08:25;;;;;;;14.25;6.60;;;;;;;;;;5008666;28;20057;-56
2023/04/03 04:10:51;;;;;;;12.55;6.75;;;;;;;;;;4989265;28;20041;-55
2023/04/03 04:13:18;;;;;;;10.98;6.30;;;;;;;;;;5002811;28;20526;-58
2023/04/03 04:15:45;;;;;;;15.23;6.95;;;;;;;;;;5007016;28;20067;-57
2023/04/03 04:18:11;;;;;;;13.27;6.57;;;;;;;;;;5005850;28;20034;-57
2023/04/03 04:20:37;;;;;;;15.43;7.07;;;;;;;;;;5007085;28;20044;-56
2023/04/03 04:23:04;;;;;;;28.23;9.65;;;;;;;;;;5006875;28;20082;-56
2023/04/03 04:25:31;;;;;;;20.88;8.30;;;;;;;;;;5004090;28;20046;-57
2023/04/03 04:27:57;;;;;;;14.43;6.07;;;;;;;;;;5012522;28;20041;-56
2023/04/03 04:30:23;;;;;;;17.05;7.30;;;;;;;;;;5009462;28;20042;-56
2023/04/03 04:32:50;;;;;;;30.83;9.95;;;;;;;;;;5010278;28;20547;-56
2023/04/03 04:35:17;;;;;;;16.88;7.13;;;;;;;;;;4979079;28;20037;-58
2023/04/03 04:37:46;;;;;;;11.02;5.35;;;;;;;;;;5008410;28;20041;-57
2023/04/03 04:40:12;;;;;;;14.27;7.07;;;;;;;;;;5007988;28;20049;-56
2023/04/03 04:42:39;;;;;;;10.75;5.95;;;;;;;;;;5006729;28;20045;-56
2023/04/03 04:45:07;;;;;;;8.88;5.60;;;;;;;;;;5006308;28;20415;-56
2023/04/03 04:47:33;;;;;;;10.68;5.45;;;;;;;;;;5010352;28;20538;-57
2023/04/03 04:50:00;;;;;;;9.98;5.40;;;;;;;;;;5010404;28;20407;-58
2023/04/03 04:52:26;;;;;;;9.13;5.55;;;;;;;;;;5010908;28;20060;-57
2023/04/03 04:54:53;;;;;;;9.35;5.43;;;;;;;;;;5007267;28;20050;-56
2023/04/03 04:57:19;;;;;;;6.55;4.63;;;;;;;;;;5009796;28;20061;-57
2023/04/03 04:59:47;;;;;;;8.02;5.47;;;;;;;;;;5009262;28;20037;-57
2023/04/03 05:02:13;;;;;;;9.25;4.85;;;;;;;;;;5011841;28;20428;-57
2023/04/03 05:04:41;;;;;;;6.50;4.50;;;;;;;;;;5008372;28;20042;-57
2023/04/03 05:07:13;;;;;;;7.05;5.03;;;;;;;;;;5005629;28;20045;-55
2023/04/03 05:09:42;;;;;;;7.75;4.30;;;;;;;;;;5007918;28;20069;-56
2023/04/03 05:12:08;;;;;;;7.78;4.20;;;;;;;;;;5009919;28;20045;-55
2023/04/03 05:14:40;;;;;;;6.97;4.25;;;;;;;;;;4992464;28;20412;-56
2023/04/03 05:17:08;;;;;;;6.60;3.95;;;;;;;;;;5010252;28;20030;-56
2023/04/03 05:19:38;;;;;;;;;;;;;;;;;;5005465;28;20048;-56
2023/04/03 05:22:06;;;;;;;4.78;3.60;;;;;;;;;;5007978;28;19913;-55
2023/04/03 05:24:32;;;;;;;4.93;3.67;;;;;;;;;;5007501;28;20033;-56
2023/04/03 05:26:59;;;;;;;5.40;3.72;;;;;;;;;;5009094;28;20523;-56
2023/04/03 05:29:26;;;;;;;9.77;3.95;;;;;;;;;;5009128;28;20034;-56
2023/04/03 05:31:53;;;;;;;5.63;3.30;;;;;;;;;;5009949;28;20054;-55
2023/04/03 05:34:19;;;;;;;8.40;3.92;;;;;;;;;;5009290;28;20595;-55
2023/04/03 05:36:48;;;;;;;5.88;3.53;;;;;;;;;;5008426;28;20037;-55
2023/04/03 05:39:15;;;;;;;4.93;3.45;;;;;;;;;;5008733;28;20049;-56
2023/04/03 05:41:43;;;;;;;6.70;4.15;;;;;;;;;;5007623;28;20049;-56
2023/04/03 05:44:09;;;;;;;7.40;3.85;;;;;;;;;;5007241;28;20435;-56
2023/04/03 05:46:35;;;;;;;4.13;3.35;;;;;;;;;;5005671;28;20037;-55
2023/04/03 05:49:05;;;;;;;5.35;3.25;;;;;;;;;;5008816;28;20038;-56
2023/04/03 05:51:39;;;;;;;6.07;3.17;;;;;;;;;;5007251;28;20034;-57
2023/04/03 05:54:29;;;;;;;5.30;3.72;;;;;;;;;;5007642;28;20037;-55
2023/04/03 05:57:02;;;;;;;6.28;4.10;;;;;;;;;;5009894;28;20037;-56
2023/04/03 05:59:28;;;;;;;5.28;4.10;;;;;;;;;;4991736;28;20040;-56
2023/04/03 06:01:57;;;;;;;7.70;3.40;;;;;;;;;;5007767;28;20042;-56
2023/04/03 06:04:24;;;;;;;4.78;3.42;;;;;;;;;;5005742;28;20029;-56
2023/04/03 06:06:53;;;;;;;6.35;4.13;;;;;;;;;;5010273;28;20061;-56
2023/04/03 06:09:22;;;;;;;12.95;5.05;;;;;;;;;;5009994;28;20038;-56
2023/04/03 06:11:48;;;;;;;5.93;3.80;;;;;;;;;;5007016;28;20053;-56
2023/04/03 06:14:15;;;;;;;7.68;4.05;;;;;;;;;;5008078;28;20037;-57
2023/04/03 06:16:41;;;;;;;6.13;4.05;;;;;;;;;;5009794;28;20044;-56
2023/04/03 06:19:09;;;;;;;5.00;3.78;;;;;;;;;;5006758;28;20029;-56
2023/04/03 06:21:38;;;;;;;8.18;4.57;;;;;;;;;;5008953;28;20050;-56
2023/04/03 06:24:04;;;;;;;4.90;3.70;;;;;;;;;;5009856;28;20411;-57
2023/04/03 06:26:33;;;;;;;5.45;3.78;;;;;;;;;;5006044;28;20053;-53
2023/04/03 06:28:59;;;;;;;5.95;4.22;;;;;;;;;;5007717;28;20496;-56
2023/04/03 06:31:25;;;;;;;6.30;3.95;;;;;;;;;;5005629;28;20034;-56
2023/04/03 06:33:52;;;;;;;5.78;4.15;;;;;;;;;;5007509;28;20508;-56
2023/04/03 06:36:20;;;;;;;8.88;4.22;;;;;;;;;;5010239;28;20049;-55
2023/04/03 06:38:47;;;;;;;7.18;4.80;;;;;;;;;;5007525;28;20400;-57
2023/04/03 06:41:14;;;;;;;5.10;4.40;;;;;;;;;;5006519;28;20051;-56
2023/04/03 06:43:40;;;;;;;5.57;4.10;;;;;;;;;;5006935;28;20042;-56
2023/04/03 06:46:06;;;;;;;6.28;4.03;;;;;;;;;;4992099;28;20049;-55
2023/04/03 06:48:32;;;;;;;5.38;4.00;;;;;;;;;;5006612;28;20049;-56
2023/04/03 06:50:59;;;;;;;6.47;4.18;;;;;;;;;;5005146;28;20056;-56
2023/04/03 06:53:25;;;;;;;13.15;5.10;;;;;;;;;;5004339;28;20030;-55
2023/04/03 06:55:51;;;;;;;7.72;4.22;;;;;;;;;;5007005;28;20045;-56
2023/04/03 06:58:17;;;;;;;5.90;3.72;;;;;;;;;;5009461;28;20064;-55
2023/04/03 07:00:43;;;;;;;4.72;3.75;;;;;;;;;;5008560;28;20050;-56
2023/04/03 07:03:09;;;;;;;7.93;4.00;;;;;;;;;;5010357;28;20041;-56
2023/04/03 07:05:36;;;;;;;6.47;4.00;;;;;;;;;;5010153;28;20496;-55
2023/04/03 07:08:02;;;;;;;7.00;4.10;;;;;;;;;;5010088;28;20033;-55
2023/04/03 07:10:28;;;;;;;6.40;4.88;;;;;;;;;;5007756;28;20030;-56
2023/04/03 07:12:54;;;;;;;9.10;5.18;;;;;;;;;;5008188;28;20054;-56
2023/04/03 07:15:20;;;;;;;6.18;4.20;;;;;;;;;;5009485;28;20407;-57
2023/04/03 07:17:46;;;;;;;4.95;3.95;;;;;;;;;;5010391;28;20042;-56
2023/04/03 07:20:12;;;;;;;6.65;3.72;;;;;;;;;;5009503;28;20046;-55
2023/04/03 07:22:39;;;;;;;4.40;3.55;;;;;;;;;;5010295;28;20041;-55
2023/04/03 07:25:07;;;;;;;8.60;4.43;;;;;;;;;;5009767;28;20053;-56
2023/04/03 07:27:33;;;;;;;8.07;3.95;;;;;;;;;;5008774;28;20042;-56
2023/04/03 07:29:59;;;;;;;4.55;3.33;;;;;;;;;;5008792;28;20045;-56
2023/04/03 07:32:25;;;;;;;5.20;3.92;;;;;;;;;;5009688;28;20034;-57
2023/04/03 07:34:52;;;;;;;4.38;3.55;;;;;;;;;;5009534;28;20053;-55
2023/04/03 07:37:18;;;;;;;5.53;3.63;;;;;;;;;;5008043;28;20558;-56
2023/04/03 07:39:44;;;;;;;5.15;3.75;;;;;;;;;;5006631;28;20052;-57
2023/04/03 07:42:12;;;;;;;6.50;3.85;;;;;;;;;;5005456;28;20520;-55
2023/04/03 07:44:38;;;;;;;4.25;3.83;;;;;;;;;;5006850;28;20041;-56
2023/04/03 07:47:04;;;;;;;4.15;3.63;;;;;;;;;;5008743;28;20048;-56
2023/04/03 07:49:31;;;;;;;7.05;4.63;;;;;;;;;;5007487;28;20045;-56
2023/04/03 07:51:58;;;;;;;10.60;4.60;;;;;;;;;;5006022;28;20052;-57
2023/04/03 07:54:24;;;;;;;4.57;3.80;;;;;;;;;;5005459;28;20044;-55
2023/04/03 07:56:50;;;;;;;5.72;3.97;;;;;;;;;;5006133;28;20053;-57
2023/04/03 07:59:16;;;;;;;6.30;4.13;;;;;;;;;;5008315;28;20404;-56
2023/04/03 08:01:43;;;;;;;8.40;3.85;;;;;;;;;;5010749;28;20054;-55
2023/04/03 08:04:09;;;;;;;5.15;3.90;;;;;;;;;;5010005;28;20037;-56
2023/04/03 08:06:36;;;;;;;6.30;3.83;;;;;;;;;;5012159;28;20666;-57
2023/04/03 08:09:04;;;;;;;5.50;3.80;;;;;;;;;;5009699;28;20430;-56
2023/04/03 08:11:30;;;;;;;4.95;3.65;;;;;;;;;;5008346;28;20037;-56
2023/04/03 08:13:57;;;;;;;6.15;4.38;;;;;;;;;;5008662;28;20046;-55
2023/04/03 08:16:26;;;;;;;6.90;4.70;;;;;;;;;;5012460;28;20045;-56
2023/04/03 08:18:53;;;;;;;7.10;4.95;;;;;;;;;;5010715;28;20060;-56
2023/04/03 08:21:20;;;;;;;19.77;9.27;;;;;;;;;;5011879;28;20043;-57
2023/04/03 08:23:49;;;;;;;11.50;5.68;;;;;;;;;;5009632;28;20033;-56
2023/04/03 08:26:18;;;;;;;24.52;11.02;;;;;;;;;;5012467;28;20046;-57
2023/04/03 08:28:45;;;;;;;14.15;7.20;;;;;;;;;;5012555;28;20455;-57
2023/04/03 08:31:15;;;;;;;16.00;7.00;;;;;;;;;;5008046;28;20034;-56
2023/04/03 08:33:41;;;;;;;18.35;8.50;;;;;;;;;;5004790;28;20046;-56
2023/04/03 08:36:17;;;;;;;18.77;8.73;;;;;;;;;;5010646;28;20046;-57
2023/04/03 08:38:43;;;;;;;30.73;11.48;;;;;;;;;;5010713;28;20050;-56
2023/04/03 08:41:30;;;;;;;28.77;10.38;;;;;;;;;;5010291;28;20034;-56
2023/04/03 08:44:26;;;;;;;20.25;8.55;;;;;;;;;;5009004;28;20053;-56
2023/04/03 08:46:58;;;;;;;32.83;13.98;;;;;;;;;;5009433;28;20419;-56
2023/04/03 08:49:40;;;;;;;13.18;7.57;;;;;;;;;;5011780;28;20068;-57
2023/04/03 08:52:12;;;;;;;16.45;9.50;;;;;;;;;;5011375;28;20507;-57
2023/04/03 08:55:03;;;;;;;12.77;8.10;;;;;;;;;;5009364;28;20054;-56
2023/04/03 08:57:34;;;;;;;13.13;7.13;;;;;;;;;;5007634;28;20046;-56
2023/04/03 09:00:07;;;;;;;15.60;9.32;;;;;;;;;;5010314;28;20045;-56
2023/04/03 09:02:55;;;;;;;12.32;5.13;;;;;;;;;;5012003;28;20542;-57
2023/04/03 09:05:59;;;;;;;8.45;6.35;;;;;;;;;;5007873;28;20049;-56
2023/04/03 09:08:31;;;;;;;8.93;5.38;;;;;;;;;;5010095;28;20058;-56
2023/04/03 09:11:03;;;;;;;6.90;5.03;;;;;;;;;;5008323;28;20062;-57
2023/04/03 09:13:48;;;;;;;4.40;3.55;;;;;;;;;;5008896;28;20406;-57
2023/04/03 09:16:32;;;;;;;5.22;4.03;;;;;;;;;;5008310;28;20045;-56
2023/04/03 09:19:10;;;;;;;5.80;4.80;;;;;;;;;;5007558;28;20034;-57
2023/04/03 09:21:42;;;;;;;7.82;5.35;;;;;;;;;;5009061;28;20048;-56
2023/04/03 09:24:11;;;;;;;7.60;5.95;;;;;;;;;;5005950;28;20038;-57
2023/04/03 09:26:51;;;;;;;7.40;5.78;;;;;;;;;;5009658;28;20480;-57
2023/04/03 09:29:23;;;;;;;5.82;4.20;;;;;;;;;;5007584;28;20040;-56
2023/04/03 09:31:55;;;;;;;7.85;4.90;;;;;;;;;;5009901;28;20032;-57
2023/04/03 09:34:26;;;;;;;6.35;4.10;;;;;;;;;;5010281;28;20046;-56
2023/04/03 09:36:55;;;;;;;7.47;5.53;;;;;;;;;;5007388;28;20570;-55
2023/04/03 09:39:24;;;;;;;9.25;5.55;;;;;;;;;;5010090;28;20030;-57
2023/04/03 09:41:56;;;;;;;6.68;4.78;;;;;;;;;;5006986;28;20037;-56
2023/04/03 09:44:28;;;;;;;10.23;4.53;;;;;;;;;;5007424;28;20512;-56
2023/04/03 09:46:55;;;;;;;7.93;4.63;;;;;;;;;;5007921;28;20056;-56
2023/04/03 09:49:21;;;;;;;6.75;4.70;;;;;;;;;;5006743;28;20060;-56
2023/04/03 09:51:48;;;;;;;6.72;4.53;;;;;;;;;;5008407;28;20034;-56
2023/04/03 09:54:26;;;;;;;4.85;3.92;;;;;;;;;;5009855;28;20033;-54
2023/04/03 09:56:53;;;;;;;7.88;4.18;;;;;;;;;;5009213;28;20050;-57
2023/04/03 09:59:20;;;;;;;6.72;4.05;;;;;;;;;;5008519;28;20045;-57
2023/04/03 10:02:02;;;;;;;4.60;3.40;;;;;;;;;;5009833;28;20045;-57
2023/04/03 10:04:41;;;;;;;5.93;4.03;;;;;;;;;;5004667;28;20447;-57
2023/04/03 10:07:29;;;;;;;5.15;4.05;;;;;;;;;;5008586;28;20044;-57
2023/04/03 10:10:17;;;;;;;5.80;4.50;;;;;;;;;;5008848;28;20090;-56
2023/04/03 10:12:44;;;;;;;5.35;4.30;;;;;;;;;;5009366;28;20057;-57
2023/04/03 10:15:14;;;;;;;7.28;5.45;;;;;;;;;;5010249;28;20049;-57
2023/04/03 10:17:56;;;;;;;7.45;5.03;;;;;;;;;;5009258;28;20077;-56
2023/04/03 10:20:46;;;;;;;5.65;4.70;;;;;;;;;;5007895;28;20041;-57
2023/04/03 10:23:20;;;;;;;7.45;3.75;;;;;;;;;;5008870;28;20049;-57
2023/04/03 10:25:59;;;;;;;5.03;3.72;;;;;;;;;;5010794;28;20037;-57
2023/04/03 10:28:28;;;;;;;7.50;3.60;;;;;;;;;;5010749;28;20037;-57
2023/04/03 10:31:06;;;;;;;6.07;3.90;;;;;;;;;;5010114;28;20025;-57
2023/04/03 10:33:47;;;;;;;4.30;3.90;;;;;;;;;;5008571;28;20400;-57
2023/04/03 10:36:31;;;;;;;4.22;3.50;;;;;;;;;;5002931;28;20041;-57
2023/04/03 10:39:18;;;;;;;9.48;5.90;;;;;;;;;;5006053;28;20079;-56
2023/04/03 10:42:08;;;;;;;5.22;3.78;;;;;;;;;;5007226;28;20038;-57
2023/04/03 10:45:12;;;;;;;6.00;4.22;;;;;;;;;;5006076;28;20492;-57
2023/04/03 10:48:08;;;;;;;7.32;5.43;;;;;;;;;;5007628;28;20026;-56
2023/04/03 10:50:46;;;;;;;5.53;4.20;;;;;;;;;;5005663;28;20061;-57
2023/04/03 10:53:32;;;;;;;6.32;4.60;;;;;;;;;;5009806;28;20034;-57
2023/04/03 10:56:15;;;;;;;5.78;4.22;;;;;;;;;;5009709;28;20492;-57
2023/04/03 10:58:45;;;;;;;4.38;3.97;;;;;;;;;;5006431;28;20069;-57
2023/04/03 11:01:20;;;;;;;6.07;4.88;;;;;;;;;;5003889;28;20407;-56
2023/04/03 11:03:54;;;;;;;4.53;3.50;;;;;;;;;;5009937;28;20029;-57
2023/04/03 11:06:24;;;;;;;3.25;2.88;;;;;;;;;;5010220;28;20034;-57
2023/04/03 11:08:57;;;;;;;3.85;3.15;;;;;;;;;;5006106;28;20061;-57
2023/04/03 11:11:32;;;;;;;4.30;3.10;;;;;;;;;;5009351;28;20404;-55
2023/04/03 11:14:27;;;;;;;4.78;3.25;;;;;;;;;;5008951;28;20029;-57
2023/04/03 11:17:10;;;;;;;5.50;2.95;;;;;;;;;;5009416;28;20058;-57
2023/04/03 11:19:43;;;;;;;5.28;3.28;;;;;;;;;;5009620;28;20045;-57
2023/04/03 11:22:31;;;;;;;5.63;3.38;;;;;;;;;;5008261;28;20034;-57
2023/04/03 11:25:28;;;;;;;4.90;3.15;;;;;;;;;;5009555;28;20064;-57
2023/04/03 11:27:58;;;;;;;9.85;3.47;;;;;;;;;;5009695;28;20418;-57
2023/04/03 11:30:31;;;;;;;3.63;2.70;;;;;;;;;;5006528;28;20058;-57
2023/04/03 11:33:28;;;;;;;5.10;3.03;;;;;;;;;;5007806;28;20060;-57
2023/04/03 11:36:01;;;;;;;3.28;2.90;;;;;;;;;;5006521;28;20046;-57
2023/04/03 11:38:35;;;;;;;4.35;3.05;;;;;;;;;;5008312;28;20415;-57
2023/04/03 11:41:07;;;;;;;3.17;2.72;;;;;;;;;;5007489;28;20037;-57
2023/04/03 11:43:39;;;;;;;4.00;3.03;;;;;;;;;;5007580;28;20046;-56
2023/04/03 11:46:06;;;;;;;6.03;3.53;;;;;;;;;;5007206;28;20038;-57
2023/04/03 11:48:36;;;;;;;3.90;2.97;;;;;;;;;;5008256;28;20044;-57
2023/04/03 11:51:28;;;;;;;3.13;2.83;;;;;;;;;;5009007;28;20045;-57
2023/04/03 11:53:54;;;;;;;4.25;3.03;;;;;;;;;;5007904;28;20056;-56
2023/04/03 11:56:23;;;;;;;3.65;3.35;;;;;;;;;;5006318;28;20483;-56
2023/04/03 11:59:04;;;;;;;4.18;2.88;;;;;;;;;;5007239;28;20037;-57
2023/04/03 12:01:53;;;;;;;3.90;3.10;;;;;;;;;;5008672;28;20050;-56
2023/04/03 12:04:25;;;;;;;6.32;2.90;;;;;;;;;;5005643;28;20038;-56
2023/04/03 12:07:12;;;;;;;3.30;2.70;;;;;;;;;;5009350;28;20046;-56
2023/04/03 12:09:41;;;;;;;4.65;3.03;;;;;;;;;;5005542;28;20038;-56
2023/04/03 12:12:37;;;;;;;3.95;2.72;;;;;;;;;;5009316;28;20049;-57
2023/04/03 12:15:41;;;;;;;5.47;3.55;;;;;;;;;;5003706;28;20046;-56
2023/04/03 12:18:42;;;;;;;4.50;2.97;;;;;;;;;;5000204;28;20030;-56
2023/04/03 12:21:12;;;;;;;4.45;3.03;;;;;;;;;;5009061;28;20042;-56
2023/04/03 12:24:04;;;;;;;5.93;2.83;;;;;;;;;;5006625;28;20046;-57
2023/04/03 12:26:48;;;;;;;5.13;3.70;;;;;;;;;;5005467;28;20030;-56
2023/04/03 12:29:28;;;;;;;5.75;3.65;;;;;;;;;;5005455;28;20042;-56
2023/04/03 12:32:07;;;;;;;3.30;3.00;;;;;;;;;;5006534;28;20041;-56
2023/04/03 12:34:53;;;;;;;;;;;;;;;;;;5008700;28;20416;-57
2023/04/03 12:37:38;;;;;;;4.30;2.72;;;;;;;;;;5005948;28;19913;-56
2023/04/03 12:40:25;;;;;;;3.78;2.80;;;;;;;;;;5002018;28;20044;-57
2023/04/03 12:43:20;;;;;;;6.70;3.22;;;;;;;;;;5008774;28;20030;-57
2023/04/03 12:45:56;;;;;;;3.00;2.30;;;;;;;;;;5006928;28;20049;-57
2023/04/03 12:48:26;;;;;;;3.53;2.53;;;;;;;;;;5009458;28;20832;-56
2023/04/03 12:50:52;;;;;;;3.92;2.90;;;;;;;;;;5011016;28;20045;-53
2023/04/03 12:53:23;;;;;;;3.92;2.40;;;;;;;;;;5011658;28;20044;-56
2023/04/03 12:56:16;;;;;;;4.35;3.10;;;;;;;;;;5011899;28;21465;-55
2023/04/03 12:58:42;;;;;;;5.95;3.30;;;;;;;;;;5009058;28;20049;-56
2023/04/03 13:01:08;;;;;;;4.63;3.15;;;;;;;;;;5010777;28;20065;-56
2023/04/03 13:03:37;;;;;;;5.03;3.00;;;;;;;;;;5009868;28;20060;-56
2023/04/03 13:06:04;;;;;;;3.38;2.70;;;;;;;;;;5011620;28;20034;-56
2023/04/03 13:08:31;;;;;;;4.35;2.80;;;;;;;;;;5010667;28;20041;-56
2023/04/03 13:11:11;;;;;;;4.38;3.30;;;;;;;;;;5012018;28;20049;-56
2023/04/03 13:13:38;;;;;;;5.35;3.65;;;;;;;;;;5010075;28;20041;-56
2023/04/03 13:16:11;;;;;;;4.13;3.45;;;;;;;;;;5012202;28;20113;-56
2023/04/03 13:18:38;;;;;;;5.60;3.30;;;;;;;;;;5012262;28;20030;-56
2023/04/03 13:21:30;;;;;;;4.07;3.22;;;;;;;;;;5011752;28;20050;-56
2023/04/03 13:23:59;;;;;;;5.22;3.65;;;;;;;;;;5008709;28;20511;-57
2023/04/03 13:26:30;;;;;;;5.43;3.20;;;;;;;;;;5012588;28;20038;-56
2023/04/03 13:29:02;;;;;;;3.38;3.08;;;;;;;;;;5012001;28;20042;-57
2023/04/03 13:31:40;;;;;;;3.38;2.80;;;;;;;;;;5009550;28;20423;-56
2023/04/03 13:34:09;;;;;;;4.63;3.40;;;;;;;;;;5010219;28;20065;-56
2023/04/03 13:37:00;;;;;;;5.38;3.10;;;;;;;;;;5006619;28;20408;-56
2023/04/03 13:39:30;;;;;;;4.70;3.30;;;;;;;;;;5007144;28;20060;-56
2023/04/03 13:42:22;;;;;;;5.18;4.47;;;;;;;;;;5009891;28;20058;-56
2023/04/03 13:45:05;;;;;;;5.55;3.70;;;;;;;;;;5008012;28;20121;-57
2023/04/03 13:47:42;;;;;;;4.43;2.92;;;;;;;;;;5009105;28;20029;-56
2023/04/03 13:50:11;;;;;;;3.67;3.00;;;;;;;;;;5010507;28;20037;-56
2023/04/03 13:52:51;;;;;;;4.03;3.50;;;;;;;;;;5009810;28;20038;-57
2023/04/03 13:55:52;;;;;;;5.65;3.38;;;;;;;;;;5010853;28;20037;-57
2023/04/03 13:58:24;;;;;;;6.63;3.40;;;;;;;;;;5007630;28;20424;-57
2023/04/03 14:01:07;;;;;;;4.38;3.28;;;;;;;;;;5009198;28;20025;-57
2023/04/03 14:03:51;;;;;;;5.53;4.30;;;;;;;;;;5010299;28;20037;-57
2023/04/03 14:06:17;;;;;;;5.03;3.65;;;;;;;;;;5010693;28;20049;-57
2023/04/03 14:08:45;;;;;;;6.65;3.88;;;;;;;;;;5011310;28;20033;-55
2023/04/03 14:11:18;;;;;;;5.25;3.58;;;;;;;;;;5010904;28;20038;-57
2023/04/03 14:13:46;;;;;;;8.40;4.38;;;;;;;;;;5006847;28;20415;-56
2023/04/03 14:16:21;;;;;;;4.60;3.67;;;;;;;;;;5008300;28;20491;-57
2023/04/03 14:18:49;;;;;;;4.28;3.88;;;;;;;;;;5009811;28;20037;-56
2023/04/03 14:21:18;;;;;;;11.13;5.43;;;;;;;;;;5008388;28;20037;-57
2023/04/03 14:23:44;;;;;;;6.10;4.05;;;;;;;;;;5010248;28;20044;-55
2023/04/03 14:26:17;;;;;;;5.80;3.53;;;;;;;;;;5010599;28;20045;-57
2023/04/03 14:28:45;;;;;;;6.75;3.55;;;;;;;;;;5007664;28;20045;-57
2023/04/03 14:31:12;;;;;;;7.95;3.70;;;;;;;;;;5005674;28;20049;-57
2023/04/03 14:33:39;;;;;;;4.70;3.50;;;;;;;;;;5007518;28;20034;-57
2023/04/03 14:36:13;;;;;;;4.53;3.25;;;;;;;;;;5008363;28;20400;-57
2023/04/03 14:38:40;;;;;;;7.57;4.53;;;;;;;;;;5008668;28;20496;-57
2023/04/03 14:41:07;;;;;;;8.38;3.92;;;;;;;;;;5006900;28;20423;-57
2023/04/03 14:43:34;;;;;;;5.47;3.65;;;;;;;;;;5008769;28;20041;-57
2023/04/03 14:46:01;;;;;;;6.15;3.63;;;;;;;;;;5007404;28;20054;-58
2023/04/03 14:48:28;;;;;;;6.25;3.60;;;;;;;;;;5009206;28;20046;-58
2023/04/03 14:50:54;;;;;;;5.75;3.30;;;;;;;;;;5006608;28;20039;-58
2023/04/03 14:53:25;;;;;;;3.92;3.47;;;;;;;;;;5009534;28;20046;-57
2023/04/03 14:55:51;;;;;;;5.70;3.45;;;;;;;;;;5005741;28;20057;-57
2023/04/03 14:58:20;;;;;;;4.45;3.85;;;;;;;;;;5006159;28;20037;-59
2023/04/03 15:00:46;;;;;;;5.63;3.90;;;;;;;;;;5004484;28;20046;-57
2023/04/03 15:03:19;;;;;;;5.65;4.50;;;;;;;;;;5008219;28;20034;-54